createdAt,value
2018-05-15T00:01:33.366Z,6.10
2018-05-15T00:04:00.833Z,5.27
2018-05-15T00:06:29.093Z,5.40
2018-05-15T00:08:56.562Z,5.27
2018-05-15T00:11:24.809Z,4.83
2018-05-15T00:13:52.277Z,6.00
2018-05-15T00:16:19.766Z,5.70
2018-05-15T00:18:47.243Z,5.30
2018-05-15T00:21:14.750Z,6.10
2018-05-15T00:23:42.989Z,5.37
2018-05-15T00:26:10.461Z,6.00
2018-05-15T00:28:37.949Z,5.50
2018-05-15T00:31:06.182Z,5.87
2018-05-15T00:33:33.854Z,5.87
2018-05-15T00:36:01.322Z,6.00
2018-05-15T00:38:28.805Z,5.77
2018-05-15T00:40:56.276Z,5.20
2018-05-15T00:43:23.758Z,5.70
2018-05-15T00:45:51.229Z,5.87
2018-05-15T00:48:18.717Z,5.87
2018-05-15T00:50:46.953Z,6.43
2018-05-15T00:53:14.475Z,6.40
2018-05-15T00:55:44.620Z,6.47
2018-05-15T00:58:12.148Z,5.70
2018-05-15T01:00:40.357Z,6.47
2018-05-15T01:05:41.733Z,5.30
2018-05-15T01:08:09.220Z,6.03
2018-05-15T01:10:37.457Z,6.03
2018-05-15T01:13:04.933Z,6.23
2018-05-15T01:15:33.186Z,5.53
2018-05-15T01:18:00.657Z,6.23
2018-05-15T01:20:28.136Z,6.30
2018-05-15T01:22:55.612Z,5.90
2018-05-15T01:25:23.093Z,6.30
2018-05-15T01:27:50.561Z,6.17
2018-05-15T01:30:18.044Z,6.37
2018-05-15T01:32:46.282Z,6.40
2018-05-15T01:35:13.811Z,5.60
2018-05-15T01:37:41.278Z,6.20
2018-05-15T01:40:08.765Z,4.87
2018-05-15T01:42:36.229Z,5.63
2018-05-15T01:45:03.713Z,5.43
2018-05-15T01:47:31.941Z,6.20
2018-05-15T01:49:59.426Z,5.40
2018-05-15T01:52:27.660Z,5.50
2018-05-15T01:54:55.132Z,5.80
2018-05-15T01:57:22.993Z,5.70
2018-05-15T01:59:50.457Z,6.80
2018-05-15T02:02:17.938Z,5.00
2018-05-15T02:04:46.169Z,5.73
2018-05-15T02:07:13.657Z,5.30
2018-05-15T02:09:41.129Z,6.20
2018-05-15T02:12:09.380Z,7.03
2018-05-15T02:14:36.849Z,5.67
2018-05-15T02:17:05.099Z,5.47
2018-05-15T02:19:32.573Z,6.60
2018-05-15T02:22:00.053Z,4.87
2018-05-15T02:24:27.522Z,5.33
2018-05-15T02:26:55.359Z,5.67
2018-05-15T02:29:23.594Z,4.90
2018-05-15T02:31:51.086Z,5.20
2018-05-15T02:34:19.319Z,5.33
2018-05-15T02:36:46.785Z,4.50
2018-05-15T02:39:14.284Z,6.50
2018-05-15T02:41:42.517Z,5.73
2018-05-15T02:44:10.005Z,4.90
2018-05-15T02:46:38.237Z,5.53
2018-05-15T02:49:05.727Z,5.20
2018-05-15T02:51:33.969Z,5.63
2018-05-15T02:54:01.450Z,5.80
2018-05-15T02:56:28.922Z,5.40
2018-05-15T02:58:57.183Z,5.10
2018-05-15T03:01:24.657Z,6.37
2018-05-15T03:03:52.942Z,5.40
2018-05-15T03:06:20.411Z,6.03
2018-05-15T03:08:47.901Z,5.10
2018-05-15T03:11:15.369Z,6.43
2018-05-15T03:13:42.857Z,6.13
2018-05-15T03:16:11.113Z,5.50
2018-05-15T03:18:39.353Z,6.00
2018-05-15T03:21:06.837Z,6.33
2018-05-15T03:23:34.301Z,5.27
2018-05-15T03:26:02.557Z,5.40
2018-05-15T03:28:30.017Z,5.47
2018-05-15T03:30:57.502Z,6.47
2018-05-15T03:33:25.737Z,6.17
2018-05-15T03:35:53.217Z,5.90
2018-05-15T03:38:20.688Z,5.40
2018-05-15T03:40:48.949Z,6.80
2018-05-15T03:43:17.189Z,6.63
2018-05-15T03:45:44.677Z,6.40
2018-05-15T03:48:12.910Z,6.43
2018-05-15T03:50:40.391Z,6.27
2018-05-15T03:53:07.862Z,6.43
2018-05-15T03:55:36.129Z,7.03
2018-05-15T03:58:03.593Z,6.63
2018-05-15T04:00:43.873Z,7.33
2018-05-15T04:03:23.244Z,7.27
2018-05-15T04:06:02.735Z,8.23
2018-05-15T04:08:31.057Z,7.47
2018-05-15T04:10:58.507Z,8.33
2018-05-15T04:13:26.718Z,9.23
2018-05-15T04:15:54.186Z,8.90
2018-05-15T04:18:22.433Z,8.00
2018-05-15T04:20:49.905Z,7.90
2018-05-15T04:23:17.389Z,8.53
2018-05-15T04:25:44.860Z,9.70
2018-05-15T04:28:12.386Z,8.87
2018-05-15T04:30:39.825Z,7.83
2018-05-15T04:33:07.306Z,8.60
2018-05-15T04:35:35.549Z,8.70
2018-05-15T04:38:03.037Z,9.63
2018-05-15T04:40:30.512Z,8.00
2018-05-15T04:42:57.993Z,7.70
2018-05-15T04:45:25.465Z,8.43
2018-05-15T04:47:52.941Z,9.30
2018-05-15T04:50:21.256Z,9.00
2018-05-15T04:52:48.730Z,8.47
2018-05-15T04:55:16.215Z,9.50
2018-05-15T04:57:43.684Z,8.90
2018-05-15T05:00:11.965Z,8.70
2018-05-15T05:02:40.209Z,9.47
2018-05-15T05:05:07.694Z,9.70
2018-05-15T05:07:35.929Z,6.90
2018-05-15T05:10:03.413Z,9.27
2018-05-15T05:12:30.889Z,10.27
2018-05-15T05:14:59.142Z,8.87
2018-05-15T05:17:26.614Z,8.40
2018-05-15T05:19:54.884Z,7.60
2018-05-15T05:22:23.113Z,8.50
2018-05-15T05:24:50.592Z,7.00
2018-05-15T05:27:18.065Z,7.57
2018-05-15T05:29:46.316Z,7.57
2018-05-15T05:32:13.802Z,7.67
2018-05-15T05:34:42.042Z,7.57
2018-05-15T05:37:09.525Z,7.33
2018-05-15T05:39:37.761Z,6.70
2018-05-15T05:42:05.245Z,7.73
2018-05-15T05:44:32.717Z,7.30
2018-05-15T05:47:00.966Z,7.87
2018-05-15T05:49:28.432Z,6.40
2018-05-15T05:51:55.989Z,7.03
2018-05-15T05:54:23.393Z,7.80
2018-05-15T05:56:52.013Z,6.03
2018-05-15T05:59:19.482Z,7.07
2018-05-15T06:01:46.961Z,6.00
2018-05-15T06:04:15.197Z,6.10
2018-05-15T06:06:42.686Z,5.77
2018-05-15T06:09:10.927Z,5.50
2018-05-15T06:11:38.414Z,6.40
2018-05-15T06:14:06.649Z,5.77
2018-05-15T06:16:34.125Z,5.53
2018-05-15T06:19:01.593Z,5.27
2018-05-15T06:21:29.864Z,6.30
2018-05-15T06:23:57.329Z,6.87
2018-05-15T06:26:25.561Z,6.00
2018-05-15T06:28:53.048Z,5.87
2018-05-15T06:31:21.286Z,6.00
2018-05-15T06:33:48.769Z,5.23
2018-05-15T06:36:16.237Z,5.60
2018-05-15T06:38:44.493Z,5.43
2018-05-15T06:41:11.963Z,5.50
2018-05-15T06:43:40.219Z,5.50
2018-05-15T06:46:07.685Z,4.87
2018-05-15T06:48:35.166Z,5.60
2018-05-15T06:51:03.401Z,5.73
2018-05-15T06:53:30.893Z,5.60
2018-05-15T06:55:59.126Z,5.00
2018-05-15T06:58:26.650Z,4.87
2018-05-15T07:00:54.118Z,4.80
2018-05-15T07:03:21.605Z,5.20
2018-05-15T07:05:49.083Z,4.87
2018-05-15T07:08:17.369Z,5.40
2018-05-15T07:10:45.602Z,4.17
2018-05-15T07:13:13.083Z,4.87
2018-05-15T07:15:41.368Z,6.07
2018-05-15T07:18:09.605Z,5.80
2018-05-15T07:20:37.090Z,5.10
2018-05-15T07:23:05.333Z,4.50
2018-05-15T07:25:32.826Z,4.90
2018-05-15T07:28:01.065Z,5.13
2018-05-15T07:30:28.801Z,5.10
2018-05-15T07:32:57.810Z,5.57
2018-05-15T07:35:26.069Z,5.30
2018-05-15T07:37:53.539Z,4.50
2018-05-15T07:40:21.119Z,5.30
2018-05-15T07:42:49.281Z,4.43
2018-05-15T07:45:16.766Z,5.27
2018-05-15T07:47:45.015Z,4.80
2018-05-15T07:50:12.573Z,4.83
2018-05-15T07:52:40.813Z,4.83
2018-05-15T07:55:08.287Z,4.97
2018-05-15T07:57:35.773Z,4.37
2018-05-15T08:00:03.242Z,4.70
2018-05-15T08:02:31.494Z,5.30
2018-05-15T08:04:58.969Z,5.27
2018-05-15T08:07:27.221Z,5.73
2018-05-15T08:09:54.710Z,4.83
2018-05-15T08:12:22.962Z,4.77
2018-05-15T08:14:50.431Z,5.03
2018-05-15T08:17:19.269Z,4.47
2018-05-15T08:19:46.741Z,4.53
2018-05-15T08:22:14.263Z,4.10
2018-05-15T08:24:41.733Z,4.80
2018-05-15T08:27:09.218Z,4.57
2018-05-15T08:29:36.720Z,4.40
2018-05-15T08:32:04.950Z,4.30
2018-05-15T08:34:32.431Z,4.07
2018-05-15T08:37:00.665Z,5.00
2018-05-15T08:39:28.149Z,4.93
2018-05-15T08:41:56.389Z,4.97
2018-05-15T08:44:23.872Z,5.03
2018-05-15T08:46:52.117Z,4.33
2018-05-15T08:49:19.606Z,4.40
2018-05-15T08:51:47.841Z,4.50
2018-05-15T08:54:15.328Z,4.30
2018-05-15T08:56:43.581Z,4.50
2018-05-15T08:59:11.067Z,4.23
2018-05-15T09:01:38.533Z,4.97
2018-05-15T09:04:06.795Z,4.90
2018-05-15T09:06:34.268Z,4.87
2018-05-15T09:09:02.524Z,4.07
2018-05-15T09:11:29.996Z,4.80
2018-05-15T09:13:58.245Z,4.77
2018-05-15T09:16:25.728Z,4.50
2018-05-15T09:18:53.966Z,4.53
2018-05-15T09:21:21.445Z,4.80
2018-05-15T09:23:49.682Z,4.00
2018-05-15T09:26:17.169Z,4.60
2018-05-15T09:28:44.638Z,3.93
2018-05-15T09:31:12.898Z,4.50
2018-05-15T09:33:40.365Z,4.17
2018-05-15T09:36:08.614Z,4.67
2018-05-15T09:38:36.083Z,4.90
2018-05-15T09:41:04.347Z,4.63
2018-05-15T09:46:32.117Z,3.77
2018-05-15T09:48:59.595Z,4.23
2018-05-15T09:51:27.077Z,3.50
2018-05-15T09:53:55.309Z,3.80
2018-05-15T09:56:22.789Z,3.73
2018-05-15T09:58:51.026Z,4.90
2018-05-15T10:01:18.509Z,3.87
2018-05-15T10:03:45.980Z,4.10
2018-05-15T10:06:14.241Z,5.13
2018-05-15T10:08:41.713Z,4.57
2018-05-15T10:11:09.945Z,4.50
2018-05-15T10:13:37.437Z,4.20
2018-05-15T10:16:05.686Z,4.53
2018-05-15T10:18:33.169Z,4.60
2018-05-15T10:21:01.409Z,3.97
2018-05-15T10:23:28.893Z,4.67
2018-05-15T10:25:57.142Z,4.83
2018-05-15T10:28:24.630Z,4.93
2018-05-15T10:30:52.870Z,4.50
2018-05-15T10:33:20.353Z,5.17
2018-05-15T10:35:48.593Z,4.33
2018-05-15T10:38:16.077Z,4.60
2018-05-15T10:40:43.545Z,4.67
2018-05-15T10:43:11.790Z,4.90
2018-05-15T10:45:39.898Z,4.50
2018-05-15T10:48:08.195Z,3.83
2018-05-15T10:50:35.662Z,4.63
2018-05-15T10:53:03.149Z,4.30
2018-05-15T10:55:30.619Z,4.50
2018-05-15T10:57:58.081Z,3.77
2018-05-15T11:00:26.334Z,5.10
2018-05-15T11:02:53.805Z,4.63
2018-05-15T11:05:21.290Z,4.40
2018-05-15T11:07:48.769Z,4.30
2018-05-15T11:10:16.253Z,4.50
2018-05-15T11:12:43.752Z,5.37
2018-05-15T11:15:11.993Z,4.23
2018-05-15T11:17:39.467Z,4.60
2018-05-15T11:20:19.571Z,3.57
2018-05-15T11:22:59.127Z,4.40
2018-05-15T11:25:26.609Z,3.90
2018-05-15T11:27:54.849Z,3.73
2018-05-15T11:30:22.422Z,4.40
2018-05-15T11:32:50.586Z,4.00
2018-05-15T11:35:18.073Z,3.67
2018-05-15T11:37:46.311Z,3.53
2018-05-15T11:40:13.777Z,3.43
2018-05-15T11:42:41.261Z,3.30
2018-05-15T11:45:09.500Z,4.30
2018-05-15T11:47:37.206Z,3.87
2018-05-15T11:50:06.637Z,3.07
2018-05-15T11:52:33.245Z,3.70
2018-05-15T11:55:00.212Z,3.57
2018-05-15T11:57:27.705Z,4.23
2018-05-15T11:59:55.329Z,4.03
2018-05-15T12:02:22.805Z,3.50
2018-05-15T12:04:50.993Z,4.30
2018-05-15T12:07:18.476Z,3.80
2018-05-15T12:09:46.731Z,4.00
2018-05-15T12:12:15.010Z,4.30
2018-05-15T12:14:42.483Z,4.20
2018-05-15T12:17:10.808Z,4.60
2018-05-15T12:19:38.309Z,4.20
2018-05-15T12:22:06.541Z,4.23
2018-05-15T12:24:34.826Z,4.20
2018-05-15T12:27:02.286Z,4.27
2018-05-15T12:29:29.781Z,4.70
2018-05-15T12:31:58.053Z,4.40
2018-05-15T12:34:26.303Z,4.10
2018-05-15T12:36:53.773Z,4.13
2018-05-15T12:39:22.028Z,3.77
2018-05-15T12:41:49.636Z,5.90
2018-05-15T12:44:17.798Z,3.77
2018-05-15T12:46:45.369Z,4.00
2018-05-15T12:49:12.773Z,3.90
2018-05-15T12:51:40.241Z,3.83
2018-05-15T12:54:08.544Z,4.13
2018-05-15T12:56:35.978Z,4.70
2018-05-15T12:59:04.233Z,4.63
2018-05-15T13:01:31.697Z,4.70
2018-05-15T13:03:59.185Z,5.17
2018-05-15T13:06:26.656Z,4.40
2018-05-15T13:08:54.491Z,5.07
2018-05-15T13:11:22.749Z,4.20
2018-05-15T13:13:50.227Z,4.43
2018-05-15T13:16:18.481Z,4.70
2018-05-15T13:18:45.941Z,4.70
2018-05-15T13:21:14.192Z,5.10
2018-05-15T13:23:41.662Z,5.07
2018-05-15T13:26:09.146Z,5.50
2018-05-15T13:28:36.618Z,8.20
2018-05-15T13:31:04.103Z,4.60
2018-05-15T13:33:31.570Z,4.60
2018-05-15T13:35:59.091Z,3.87
2018-05-15T13:38:26.566Z,4.70
2018-05-15T13:40:54.041Z,5.33
2018-05-15T13:43:21.513Z,4.60
2018-05-15T13:45:48.981Z,5.03
2018-05-15T13:48:17.226Z,6.03
2018-05-15T13:50:44.693Z,4.37
2018-05-15T13:53:12.178Z,5.10
2018-05-15T13:55:39.652Z,4.97
2018-05-15T13:58:07.133Z,5.13
2018-05-15T14:00:34.606Z,5.33
2018-05-15T14:03:02.093Z,5.73
2018-05-15T14:05:30.329Z,5.27
2018-05-15T14:07:57.819Z,4.70
2018-05-15T14:10:26.057Z,5.43
2018-05-15T14:12:53.542Z,4.80
2018-05-15T14:15:21.786Z,5.10
2018-05-15T14:17:49.277Z,4.23
2018-05-15T14:20:17.513Z,4.80
2018-05-15T14:22:45.001Z,4.20
2018-05-15T14:25:13.256Z,4.80
2018-05-15T14:27:40.732Z,4.70
2018-05-15T14:30:08.991Z,4.23
2018-05-15T14:32:36.461Z,5.60
2018-05-15T14:35:04.713Z,5.73
2018-05-15T14:37:32.186Z,4.87
2018-05-15T14:39:59.669Z,6.50
2018-05-15T14:42:38.912Z,4.90
2018-05-15T14:45:06.401Z,4.37
2018-05-15T14:47:33.869Z,4.57
2018-05-15T14:50:01.357Z,5.10
2018-05-15T14:52:29.590Z,5.70
2018-05-15T14:54:57.073Z,4.30
2018-05-15T14:57:25.417Z,4.97
2018-05-15T14:59:52.826Z,4.83
2018-05-15T15:02:20.403Z,5.67
2018-05-15T15:04:47.881Z,5.10
2018-05-15T15:07:15.377Z,5.00
2018-05-15T15:09:43.609Z,4.77
2018-05-15T15:12:11.093Z,5.50
2018-05-15T15:14:38.568Z,5.80
2018-05-15T15:17:06.829Z,4.80
2018-05-15T15:19:34.292Z,5.10
2018-05-15T15:22:02.546Z,5.63
2018-05-15T15:24:30.017Z,6.13
2018-05-15T15:26:57.498Z,4.63
2018-05-15T15:29:24.965Z,5.37
2018-05-15T15:31:52.449Z,5.30
2018-05-15T15:34:19.913Z,4.57
2018-05-15T15:36:48.174Z,5.03
2018-05-15T15:39:15.645Z,4.90
2018-05-15T15:41:43.134Z,6.13
2018-05-15T15:44:11.369Z,5.20
2018-05-15T15:46:38.857Z,5.67
2018-05-15T15:49:07.090Z,5.47
2018-05-15T15:51:34.560Z,4.83
2018-05-15T15:54:02.050Z,5.00
2018-05-15T15:56:30.284Z,6.50
2018-05-15T15:58:57.765Z,4.57
2018-05-15T16:01:25.237Z,5.07
2018-05-15T16:03:53.489Z,4.77
2018-05-15T16:06:20.953Z,4.87
2018-05-15T16:08:48.438Z,5.07
2018-05-15T16:11:15.914Z,5.27
2018-05-15T16:13:43.437Z,5.57
2018-05-15T16:16:11.670Z,5.50
2018-05-15T16:18:39.161Z,5.13
2018-05-15T16:21:07.394Z,5.43
2018-05-15T16:23:34.902Z,5.80
2018-05-15T16:26:03.133Z,4.93
2018-05-15T16:28:30.692Z,6.30
2018-05-15T16:30:58.873Z,5.70
2018-05-15T16:33:26.345Z,6.23
2018-05-15T16:35:53.825Z,5.73
2018-05-15T16:38:21.400Z,6.70
2018-05-15T16:40:48.885Z,5.87
2018-05-15T16:43:16.358Z,5.53
2018-05-15T16:45:43.846Z,7.73
2018-05-15T16:48:11.427Z,7.20
2018-05-15T16:50:38.909Z,5.47
2018-05-15T16:53:06.381Z,5.80
2018-05-15T16:55:33.869Z,5.63
2018-05-15T16:58:02.103Z,5.80
2018-05-15T17:00:29.587Z,6.40
2018-05-15T17:02:57.821Z,5.90
2018-05-15T17:05:25.309Z,6.00
2018-05-15T17:07:52.873Z,6.20
2018-05-15T17:10:20.265Z,5.77
2018-05-15T17:12:47.745Z,5.80
2018-05-15T17:15:15.217Z,6.87
2018-05-15T17:17:42.762Z,5.33
2018-05-15T17:20:10.949Z,6.17
2018-05-15T17:22:38.442Z,4.90
2018-05-15T17:25:06.679Z,6.47
2018-05-15T17:27:34.165Z,5.60
2018-05-15T17:30:01.645Z,5.40
2018-05-15T17:32:29.136Z,5.93
2018-05-15T17:34:56.601Z,5.60
2018-05-15T17:37:24.094Z,6.40
2018-05-15T17:39:52.333Z,6.93
2018-05-15T17:42:19.817Z,7.50
2018-05-15T17:44:48.053Z,6.70
2018-05-15T17:47:15.540Z,6.40
2018-05-15T17:49:43.773Z,6.77
2018-05-15T17:52:11.245Z,6.20
2018-05-15T17:54:38.733Z,6.30
2018-05-15T17:57:07.036Z,7.20
2018-05-15T17:59:34.521Z,6.27
2018-05-15T18:02:01.989Z,6.47
2018-05-15T18:04:29.478Z,6.87
2018-05-15T18:06:57.709Z,6.70
2018-05-15T18:09:25.193Z,7.00
2018-05-15T18:11:53.429Z,6.73
2018-05-15T18:14:20.925Z,6.77
2018-05-15T18:16:49.157Z,7.20
2018-05-15T18:19:16.649Z,6.97
2018-05-15T18:21:44.168Z,8.03
2018-05-15T18:24:12.377Z,7.77
2018-05-15T18:26:39.841Z,6.80
2018-05-15T18:29:08.114Z,6.83
2018-05-15T18:31:36.359Z,7.10
2018-05-15T18:34:03.885Z,6.90
2018-05-15T18:36:31.374Z,6.53
2018-05-15T18:38:58.930Z,7.30
2018-05-15T18:41:27.117Z,8.67
2018-05-15T18:43:54.598Z,7.40
2018-05-15T18:46:22.853Z,7.40
2018-05-15T18:48:50.321Z,7.57
2018-05-15T18:51:18.572Z,8.20
2018-05-15T18:53:46.050Z,7.03
2018-05-15T18:56:14.317Z,6.83
2018-05-15T18:58:41.785Z,8.27
2018-05-15T19:01:10.033Z,6.93
2018-05-15T19:03:37.546Z,7.30
2018-05-15T19:06:05.034Z,8.57
2018-05-15T19:08:32.549Z,8.10
2018-05-15T19:11:00.039Z,6.77
2018-05-15T19:13:27.543Z,8.60
2018-05-15T19:15:55.793Z,7.17
2018-05-15T19:18:23.279Z,7.63
2018-05-15T19:20:51.517Z,7.50
2018-05-15T19:23:19.042Z,7.37
2018-05-15T19:25:46.513Z,7.77
2018-05-15T19:28:14.001Z,8.30
2018-05-15T19:30:41.472Z,8.93
2018-05-15T19:33:08.971Z,8.67
2018-05-15T19:35:41.327Z,7.90
2018-05-15T19:38:08.825Z,8.33
2018-05-15T19:40:42.658Z,8.43
2018-05-15T19:43:10.911Z,7.90
2018-05-15T19:45:38.379Z,7.27
2018-05-15T19:48:06.637Z,8.10
2018-05-15T19:50:34.109Z,7.70
2018-05-15T19:53:02.349Z,8.67
2018-05-15T19:55:29.956Z,7.57
2018-05-15T19:57:57.435Z,9.27
2018-05-15T20:00:24.916Z,8.80
2018-05-15T20:02:52.382Z,9.93
2018-05-15T20:05:20.024Z,9.50
2018-05-15T20:07:47.502Z,10.00
2018-05-15T20:10:14.993Z,9.40
2018-05-15T20:12:43.225Z,8.47
2018-05-15T20:15:10.711Z,9.43
2018-05-15T20:17:38.993Z,9.97
2018-05-15T20:20:07.241Z,9.97
2018-05-15T20:22:34.720Z,9.10
2018-05-15T20:25:02.973Z,9.63
2018-05-15T20:27:30.442Z,8.77
2018-05-15T20:29:57.929Z,8.60
2018-05-15T20:32:25.395Z,9.77
2018-05-15T20:34:52.926Z,8.40
2018-05-15T20:37:20.369Z,8.90
2018-05-15T20:39:48.605Z,9.00
2018-05-15T20:42:16.114Z,8.97
2018-05-15T20:44:44.337Z,8.60
2018-05-15T20:47:11.822Z,8.77
2018-05-15T20:49:39.288Z,9.07
2018-05-15T20:52:07.635Z,9.10
2018-05-15T20:54:35.797Z,9.60
2018-05-15T20:57:03.286Z,11.93
2018-05-15T20:59:30.760Z,9.80
2018-05-15T21:01:59.017Z,10.60
2018-05-15T21:04:26.485Z,9.10
2018-05-15T21:06:54.742Z,10.87
2018-05-15T21:09:22.245Z,10.20
2018-05-15T21:11:49.733Z,9.23
2018-05-15T21:14:17.217Z,10.20
2018-05-15T21:16:45.509Z,10.53
2018-05-15T21:19:13.741Z,11.30
2018-05-15T21:21:41.213Z,9.80
2018-05-15T21:24:09.049Z,9.03
2018-05-15T21:26:36.526Z,10.50
2018-05-15T21:29:04.018Z,10.03
2018-05-15T21:31:31.496Z,9.30
2018-05-15T21:33:58.974Z,8.47
2018-05-15T21:36:26.445Z,8.17
2018-05-15T21:38:53.933Z,9.57
2018-05-15T21:41:22.161Z,9.30
2018-05-15T21:43:49.648Z,8.60
2018-05-15T21:46:17.118Z,8.80
2018-05-15T21:48:45.366Z,8.30
2018-05-15T21:51:12.832Z,8.63
2018-05-15T21:53:40.317Z,8.10
2018-05-15T21:56:07.789Z,8.07
2018-05-15T21:58:35.279Z,8.07
2018-05-15T22:01:02.757Z,8.43
2018-05-15T22:03:30.243Z,8.40
2018-05-15T22:05:57.718Z,9.27
2018-05-15T22:08:25.185Z,8.50
2018-05-15T22:10:53.581Z,9.20
2018-05-15T22:13:33.594Z,8.10
2018-05-15T22:16:12.927Z,10.03
2018-05-15T22:18:52.245Z,8.10
2018-05-15T22:21:31.677Z,8.87
2018-05-15T22:23:59.465Z,8.17
2018-05-15T22:26:26.933Z,8.50
2018-05-15T22:28:54.406Z,7.90
2018-05-15T22:31:21.941Z,8.40
2018-05-15T22:33:49.488Z,8.73
2018-05-15T22:36:16.961Z,8.30
2018-05-15T22:38:44.444Z,8.10
2018-05-15T22:41:11.918Z,8.83
2018-05-15T22:43:40.169Z,8.47
2018-05-15T22:46:07.641Z,7.53
2018-05-15T22:48:35.121Z,7.40
2018-05-15T22:51:02.606Z,7.57
2018-05-15T22:53:30.093Z,8.20
2018-05-15T22:55:59.066Z,8.47
2018-05-15T22:58:26.554Z,7.40
2018-05-15T23:00:54.021Z,8.90
2018-05-15T23:03:22.257Z,9.80
2018-05-15T23:05:49.737Z,9.80
2018-05-15T23:08:17.205Z,8.33
2018-05-15T23:10:45.453Z,7.63
2018-05-15T23:13:12.925Z,8.90
2018-05-15T23:15:40.463Z,8.87
2018-05-15T23:18:07.889Z,9.07
2018-05-15T23:20:35.387Z,7.93
2018-05-15T23:23:02.858Z,7.97
2018-05-15T23:25:31.113Z,7.43
2018-05-15T23:27:58.586Z,8.40
2018-05-15T23:30:26.813Z,7.17
2018-05-15T23:32:54.293Z,9.17
2018-05-15T23:35:21.766Z,8.30
2018-05-15T23:37:49.260Z,8.57
2018-05-15T23:40:16.730Z,9.30
2018-05-15T23:42:44.213Z,7.90
2018-05-15T23:45:11.692Z,9.07
2018-05-15T23:47:39.961Z,9.20
2018-05-15T23:50:07.425Z,9.20
2018-05-15T23:52:35.695Z,8.97
2018-05-15T23:55:03.163Z,9.67
2018-05-15T23:57:31.397Z,9.50
2018-05-15T23:59:58.880Z,9.63
